Halfway's Hourly Summary for Wednesday, July 11, 2018
Hour Temp
(f)
RH
(%)
Solar Rad.
(MJ/m2)
Rainfall
(in)
Wind
(mph)
7/11/2018 12:00 AM 73 58 0 0 3.36
7/11/2018 1:00 AM 72 62 0 0 5.15
7/11/2018 2:00 AM 70 63 0 0 4.39
7/11/2018 3:00 AM 69 70 0 0 4.15
7/11/2018 4:00 AM 68 74 0 0 4.54
7/11/2018 5:00 AM 67 76 0 0 3.03
7/11/2018 6:00 AM 66 76 0 0 0.23
7/11/2018 7:00 AM 66 78 0.01 0 2.56
7/11/2018 8:00 AM 66 80 0.17 0 2.01
7/11/2018 9:00 AM 70 60 0.51 0 6.06
7/11/2018 10:00 AM 74 51 1.12 0 9.79
7/11/2018 11:00 AM 79 41 2.23 0 11.47
7/11/2018 12:00 PM 83 35 2.78 0 10.8
7/11/2018 1:00 PM 85 33 3.43 0 12.98
7/11/2018 2:00 PM 87 32 3.68 0 14.58
7/11/2018 3:00 PM 87 30 3.04 0 14.33
7/11/2018 4:00 PM 89 30 2.82 0 15.24
7/11/2018 5:00 PM 90 28 2.45 0 14.75
7/11/2018 6:00 PM 90 27 2.31 0 15.04
7/11/2018 7:00 PM 89 29 1 0 14.04
7/11/2018 8:00 PM 87 30 0.21 0 11.89
7/11/2018 9:00 PM 83 36 0.08 0 13.75
7/11/2018 10:00 PM 81 39 0 0 9.22
7/11/2018 11:00 PM 80 43 0 0 7.88
Data Summary 77 49 25.84 0.00 8.80